sensor_id;sensor_type;location;lat;lon;timestamp;temperature;humidity
41939;DHT22;23057;48.554;14.454;2022-09-21T00:00:27;2.80;99.90
41939;DHT22;23057;48.554;14.454;2022-09-21T00:02:59;2.70;99.90
41939;DHT22;23057;48.554;14.454;2022-09-21T00:05:30;2.60;99.90
41939;DHT22;23057;48.554;14.454;2022-09-21T00:08:04;2.70;99.90
41939;DHT22;23057;48.554;14.454;2022-09-21T00:10:36;2.80;99.90
41939;DHT22;23057;48.554;14.454;2022-09-21T00:13:09;2.90;99.90
41939;DHT22;23057;48.554;14.454;2022-09-21T00:15:41;3.00;99.90
41939;DHT22;23057;48.554;14.454;2022-09-21T00:18:12;3.00;99.90
41939;DHT22;23057;48.554;14.454;2022-09-21T00:20:43;3.10;99.90
41939;DHT22;23057;48.554;14.454;2022-09-21T00:23:14;3.10;99.90
41939;DHT22;23057;48.554;14.454;2022-09-21T00:25:45;3.00;99.90
41939;DHT22;23057;48.554;14.454;2022-09-21T00:28:16;3.00;99.90
41939;DHT22;23057;48.554;14.454;2022-09-21T00:30:47;3.00;99.90
41939;DHT22;23057;48.554;14.454;2022-09-21T00:33:21;2.90;99.90
41939;DHT22;23057;48.554;14.454;2022-09-21T00:35:51;2.80;99.90
41939;DHT22;23057;48.554;14.454;2022-09-21T00:38:22;2.60;99.90
41939;DHT22;23057;48.554;14.454;2022-09-21T00:40:53;2.70;99.90
41939;DHT22;23057;48.554;14.454;2022-09-21T00:43:24;2.80;99.90
41939;DHT22;23057;48.554;14.454;2022-09-21T00:46:00;2.80;99.90
41939;DHT22;23057;48.554;14.454;2022-09-21T00:48:35;2.90;99.90
41939;DHT22;23057;48.554;14.454;2022-09-21T00:51:06;2.90;99.90
41939;DHT22;23057;48.554;14.454;2022-09-21T00:53:38;2.80;99.90
41939;DHT22;23057;48.554;14.454;2022-09-21T00:56:09;2.70;99.90
41939;DHT22;23057;48.554;14.454;2022-09-21T00:58:44;2.70;99.90
41939;DHT22;23057;48.554;14.454;2022-09-21T01:01:20;2.80;99.90
41939;DHT22;23057;48.554;14.454;2022-09-21T01:03:51;2.80;99.90
41939;DHT22;23057;48.554;14.454;2022-09-21T01:06:26;2.80;99.90
41939;DHT22;23057;48.554;14.454;2022-09-21T01:08:57;2.70;99.90
41939;DHT22;23057;48.554;14.454;2022-09-21T01:17:42;2.60;99.90
41939;DHT22;23057;48.554;14.454;2022-09-21T01:26:54;2.20;99.90
41939;DHT22;23057;48.554;14.454;2022-09-21T01:29:51;2.30;99.90
41939;DHT22;23057;48.554;14.454;2022-09-21T01:32:36;2.30;99.90
41939;DHT22;23057;48.554;14.454;2022-09-21T01:38:20;2.30;99.90
41939;DHT22;23057;48.554;14.454;2022-09-21T01:40:59;2.40;99.90
41939;DHT22;23057;48.554;14.454;2022-09-21T01:43:38;2.40;99.90
41939;DHT22;23057;48.554;14.454;2022-09-21T01:46:15;2.50;99.90
41939;DHT22;23057;48.554;14.454;2022-09-21T01:48:54;2.50;99.90
41939;DHT22;23057;48.554;14.454;2022-09-21T01:51:34;2.50;99.90
41939;DHT22;23057;48.554;14.454;2022-09-21T01:54:12;2.40;99.90
41939;DHT22;23057;48.554;14.454;2022-09-21T02:00:12;2.30;99.90
41939;DHT22;23057;48.554;14.454;2022-09-21T02:02:49;2.20;99.90
41939;DHT22;23057;48.554;14.454;2022-09-21T02:05:27;2.10;99.90
41939;DHT22;23057;48.554;14.454;2022-09-21T02:07:59;2.10;99.90
41939;DHT22;23057;48.554;14.454;2022-09-21T02:10:35;2.00;99.90
41939;DHT22;23057;48.554;14.454;2022-09-21T02:13:13;2.10;99.90
41939;DHT22;23057;48.554;14.454;2022-09-21T02:16:02;1.90;99.90
41939;DHT22;23057;48.554;14.454;2022-09-21T02:21:30;1.90;99.90
41939;DHT22;23057;48.554;14.454;2022-09-21T02:30:23;2.10;99.90
41939;DHT22;23057;48.554;14.454;2022-09-21T02:38:19;2.30;99.90
41939;DHT22;23057;48.554;14.454;2022-09-21T02:44:10;2.50;99.90
41939;DHT22;23057;48.554;14.454;2022-09-21T02:46:56;2.40;99.90
41939;DHT22;23057;48.554;14.454;2022-09-21T02:49:40;2.10;99.90
41939;DHT22;23057;48.554;14.454;2022-09-21T02:52:22;2.10;99.90
41939;DHT22;23057;48.554;14.454;2022-09-21T02:54:56;2.20;99.90
41939;DHT22;23057;48.554;14.454;2022-09-21T02:57:29;2.40;99.90
41939;DHT22;23057;48.554;14.454;2022-09-21T03:00:00;2.50;99.90
41939;DHT22;23057;48.554;14.454;2022-09-21T03:02:35;2.60;99.90
41939;DHT22;23057;48.554;14.454;2022-09-21T03:05:11;2.50;99.90
41939;DHT22;23057;48.554;14.454;2022-09-21T03:07:44;2.60;99.90
41939;DHT22;23057;48.554;14.454;2022-09-21T03:10:15;2.70;99.90
41939;DHT22;23057;48.554;14.454;2022-09-21T03:12:46;2.70;99.90
41939;DHT22;23057;48.554;14.454;2022-09-21T03:15:17;2.70;99.90
41939;DHT22;23057;48.554;14.454;2022-09-21T03:17:48;2.80;99.90
41939;DHT22;23057;48.554;14.454;2022-09-21T03:20:18;2.80;99.90
41939;DHT22;23057;48.554;14.454;2022-09-21T03:22:49;2.80;99.90
41939;DHT22;23057;48.554;14.454;2022-09-21T03:25:20;2.80;99.90
41939;DHT22;23057;48.554;14.454;2022-09-21T03:27:51;2.70;99.90
41939;DHT22;23057;48.554;14.454;2022-09-21T03:30:23;2.70;99.90
41939;DHT22;23057;48.554;14.454;2022-09-21T03:32:56;2.50;99.90
41939;DHT22;23057;48.554;14.454;2022-09-21T03:35:28;2.50;99.90
41939;DHT22;23057;48.554;14.454;2022-09-21T03:37:59;2.70;99.90
41939;DHT22;23057;48.554;14.454;2022-09-21T03:40:30;2.90;99.90
41939;DHT22;23057;48.554;14.454;2022-09-21T03:43:02;2.90;99.90
41939;DHT22;23057;48.554;14.454;2022-09-21T03:45:33;3.10;99.90
41939;DHT22;23057;48.554;14.454;2022-09-21T03:48:03;3.10;99.90
41939;DHT22;23057;48.554;14.454;2022-09-21T03:50:34;3.20;99.90
41939;DHT22;23057;48.554;14.454;2022-09-21T03:53:06;3.20;99.90
41939;DHT22;23057;48.554;14.454;2022-09-21T03:55:38;3.20;99.90
41939;DHT22;23057;48.554;14.454;2022-09-21T03:58:09;3.30;99.90
41939;DHT22;23057;48.554;14.454;2022-09-21T04:00:40;3.20;99.90
41939;DHT22;23057;48.554;14.454;2022-09-21T04:03:12;3.20;99.90
41939;DHT22;23057;48.554;14.454;2022-09-21T04:05:42;3.00;99.90
41939;DHT22;23057;48.554;14.454;2022-09-21T04:08:13;2.90;99.90
41939;DHT22;23057;48.554;14.454;2022-09-21T04:10:44;2.80;99.90
41939;DHT22;23057;48.554;14.454;2022-09-21T04:13:15;2.80;99.90
41939;DHT22;23057;48.554;14.454;2022-09-21T04:15:45;2.80;99.90
41939;DHT22;23057;48.554;14.454;2022-09-21T04:18:16;2.80;99.90
41939;DHT22;23057;48.554;14.454;2022-09-21T04:20:47;2.80;99.90
41939;DHT22;23057;48.554;14.454;2022-09-21T04:23:18;2.80;99.90
41939;DHT22;23057;48.554;14.454;2022-09-21T04:25:52;2.80;99.90
41939;DHT22;23057;48.554;14.454;2022-09-21T04:28:24;2.80;99.90
41939;DHT22;23057;48.554;14.454;2022-09-21T04:30:55;2.70;99.90
41939;DHT22;23057;48.554;14.454;2022-09-21T04:33:26;2.70;99.90
41939;DHT22;23057;48.554;14.454;2022-09-21T04:35:56;2.70;99.90
41939;DHT22;23057;48.554;14.454;2022-09-21T04:38:29;2.60;99.90
41939;DHT22;23057;48.554;14.454;2022-09-21T04:41:01;2.60;99.90
41939;DHT22;23057;48.554;14.454;2022-09-21T04:43:32;2.60;99.90
41939;DHT22;23057;48.554;14.454;2022-09-21T04:46:04;2.60;99.90
41939;DHT22;23057;48.554;14.454;2022-09-21T04:48:40;2.50;99.90
41939;DHT22;23057;48.554;14.454;2022-09-21T04:51:12;2.60;99.90
41939;DHT22;23057;48.554;14.454;2022-09-21T04:53:44;2.60;99.90
41939;DHT22;23057;48.554;14.454;2022-09-21T04:56:15;2.60;99.90
41939;DHT22;23057;48.554;14.454;2022-09-21T04:58:46;2.70;99.90
41939;DHT22;23057;48.554;14.454;2022-09-21T05:01:17;2.80;99.90
41939;DHT22;23057;48.554;14.454;2022-09-21T05:03:47;3.20;99.90
41939;DHT22;23057;48.554;14.454;2022-09-21T05:06:18;3.50;99.90
41939;DHT22;23057;48.554;14.454;2022-09-21T05:08:49;3.40;99.90
41939;DHT22;23057;48.554;14.454;2022-09-21T05:11:38;3.40;99.90
41939;DHT22;23057;48.554;14.454;2022-09-21T05:14:09;4.80;99.90
41939;DHT22;23057;48.554;14.454;2022-09-21T05:16:41;6.20;99.90
41939;DHT22;23057;48.554;14.454;2022-09-21T05:19:12;7.20;99.90
41939;DHT22;23057;48.554;14.454;2022-09-21T05:21:42;7.80;99.90
41939;DHT22;23057;48.554;14.454;2022-09-21T05:24:13;8.60;99.90
41939;DHT22;23057;48.554;14.454;2022-09-21T05:26:44;8.90;99.90
41939;DHT22;23057;48.554;14.454;2022-09-21T05:29:14;9.90;99.90
41939;DHT22;23057;48.554;14.454;2022-09-21T05:32:19;10.50;91.90
41939;DHT22;23057;48.554;14.454;2022-09-21T05:38:00;11.40;99.90
41939;DHT22;23057;48.554;14.454;2022-09-21T05:40:42;11.30;24.30
41939;DHT22;23057;48.554;14.454;2022-09-21T05:43:13;11.50;1.00
41939;DHT22;23057;48.554;14.454;2022-09-21T05:45:45;11.80;1.00
41939;DHT22;23057;48.554;14.454;2022-09-21T05:48:22;13.30;99.90
41939;DHT22;23057;48.554;14.454;2022-09-21T06:02:18;12.80;99.90
41939;DHT22;23057;48.554;14.454;2022-09-21T06:05:28;10.90;1.00
41939;DHT22;23057;48.554;14.454;2022-09-21T06:07:59;9.40;99.90
41939;DHT22;23057;48.554;14.454;2022-09-21T06:10:31;8.70;99.90
41939;DHT22;23057;48.554;14.454;2022-09-21T06:13:04;8.40;99.90
41939;DHT22;23057;48.554;14.454;2022-09-21T06:15:34;8.10;1.00
41939;DHT22;23057;48.554;14.454;2022-09-21T06:18:07;7.80;6.10
41939;DHT22;23057;48.554;14.454;2022-09-21T06:20:39;7.70;99.90
41939;DHT22;23057;48.554;14.454;2022-09-21T06:23:10;7.50;99.90
41939;DHT22;23057;48.554;14.454;2022-09-21T06:25:43;7.50;99.90
41939;DHT22;23057;48.554;14.454;2022-09-21T06:28:14;7.40;1.00
41939;DHT22;23057;48.554;14.454;2022-09-21T06:30:49;7.40;1.00
41939;DHT22;23057;48.554;14.454;2022-09-21T06:33:22;7.90;99.90
41939;DHT22;23057;48.554;14.454;2022-09-21T06:35:58;8.10;99.90
41939;DHT22;23057;48.554;14.454;2022-09-21T06:38:29;7.60;1.00
41939;DHT22;23057;48.554;14.454;2022-09-21T06:41:01;7.40;1.00
41939;DHT22;23057;48.554;14.454;2022-09-21T06:43:33;7.30;99.90
41939;DHT22;23057;48.554;14.454;2022-09-21T06:46:04;7.30;99.90
41939;DHT22;23057;48.554;14.454;2022-09-21T06:48:35;7.30;99.90
41939;DHT22;23057;48.554;14.454;2022-09-21T06:51:06;7.30;99.90
41939;DHT22;23057;48.554;14.454;2022-09-21T06:53:36;7.20;99.90
41939;DHT22;23057;48.554;14.454;2022-09-21T06:56:08;7.20;99.90
41939;DHT22;23057;48.554;14.454;2022-09-21T06:58:40;7.20;99.90
41939;DHT22;23057;48.554;14.454;2022-09-21T07:01:11;7.20;99.90
41939;DHT22;23057;48.554;14.454;2022-09-21T07:03:47;7.20;99.90
41939;DHT22;23057;48.554;14.454;2022-09-21T07:06:20;7.20;99.90
41939;DHT22;23057;48.554;14.454;2022-09-21T07:08:51;7.20;99.90
41939;DHT22;23057;48.554;14.454;2022-09-21T07:11:25;7.40;99.90
41939;DHT22;23057;48.554;14.454;2022-09-21T07:13:56;7.30;99.90
41939;DHT22;23057;48.554;14.454;2022-09-21T07:16:27;7.40;99.90
41939;DHT22;23057;48.554;14.454;2022-09-21T07:18:58;7.50;99.90
41939;DHT22;23057;48.554;14.454;2022-09-21T07:21:29;7.50;99.90
41939;DHT22;23057;48.554;14.454;2022-09-21T07:24:00;7.50;99.90
41939;DHT22;23057;48.554;14.454;2022-09-21T07:26:31;7.40;99.90
41939;DHT22;23057;48.554;14.454;2022-09-21T07:29:02;7.50;99.90
41939;DHT22;23057;48.554;14.454;2022-09-21T07:31:33;7.60;99.90
41939;DHT22;23057;48.554;14.454;2022-09-21T07:34:04;7.70;99.90
41939;DHT22;23057;48.554;14.454;2022-09-21T07:36:35;7.70;99.90
41939;DHT22;23057;48.554;14.454;2022-09-21T07:39:07;7.80;99.90
41939;DHT22;23057;48.554;14.454;2022-09-21T07:41:39;7.80;99.90
41939;DHT22;23057;48.554;14.454;2022-09-21T07:44:09;7.90;99.90
41939;DHT22;23057;48.554;14.454;2022-09-21T07:46:40;7.90;99.90
41939;DHT22;23057;48.554;14.454;2022-09-21T07:49:11;7.90;99.90
41939;DHT22;23057;48.554;14.454;2022-09-21T07:51:42;8.00;99.90
41939;DHT22;23057;48.554;14.454;2022-09-21T07:54:13;8.00;99.90
41939;DHT22;23057;48.554;14.454;2022-09-21T07:56:47;8.00;99.90
41939;DHT22;23057;48.554;14.454;2022-09-21T07:59:37;8.20;99.90
41939;DHT22;23057;48.554;14.454;2022-09-21T08:02:08;8.20;99.90
41939;DHT22;23057;48.554;14.454;2022-09-21T08:04:39;8.20;99.90
41939;DHT22;23057;48.554;14.454;2022-09-21T08:07:09;8.30;99.90
41939;DHT22;23057;48.554;14.454;2022-09-21T08:09:41;8.20;99.90
41939;DHT22;23057;48.554;14.454;2022-09-21T08:12:12;8.30;99.90
41939;DHT22;23057;48.554;14.454;2022-09-21T08:14:42;8.20;99.90
41939;DHT22;23057;48.554;14.454;2022-09-21T08:17:13;8.20;99.90
41939;DHT22;23057;48.554;14.454;2022-09-21T08:19:44;8.20;99.90
41939;DHT22;23057;48.554;14.454;2022-09-21T08:22:15;8.20;99.90
41939;DHT22;23057;48.554;14.454;2022-09-21T08:24:46;8.20;99.90
41939;DHT22;23057;48.554;14.454;2022-09-21T08:27:17;8.20;99.90
41939;DHT22;23057;48.554;14.454;2022-09-21T08:29:49;8.30;99.90
41939;DHT22;23057;48.554;14.454;2022-09-21T08:32:20;8.20;99.90
41939;DHT22;23057;48.554;14.454;2022-09-21T08:34:51;8.10;99.90
41939;DHT22;23057;48.554;14.454;2022-09-21T08:37:22;8.20;99.90
41939;DHT22;23057;48.554;14.454;2022-09-21T08:39:53;8.20;99.90
41939;DHT22;23057;48.554;14.454;2022-09-21T08:42:34;8.20;99.90
41939;DHT22;23057;48.554;14.454;2022-09-21T08:45:14;8.40;99.90
41939;DHT22;23057;48.554;14.454;2022-09-21T08:47:49;8.30;99.90
41939;DHT22;23057;48.554;14.454;2022-09-21T08:53:04;8.70;99.90
41939;DHT22;23057;48.554;14.454;2022-09-21T08:55:42;9.80;99.90
41939;DHT22;23057;48.554;14.454;2022-09-21T08:58:19;9.20;99.90
41939;DHT22;23057;48.554;14.454;2022-09-21T09:03:42;9.00;99.90
41939;DHT22;23057;48.554;14.454;2022-09-21T09:09:45;9.10;99.90
41939;DHT22;23057;48.554;14.454;2022-09-21T09:12:46;9.20;99.90
41939;DHT22;23057;48.554;14.454;2022-09-21T09:18:29;9.40;99.90
41939;DHT22;23057;48.554;14.454;2022-09-21T09:21:19;9.40;1.00
41939;DHT22;23057;48.554;14.454;2022-09-21T09:24:00;9.30;99.90
41939;DHT22;23057;48.554;14.454;2022-09-21T09:26:40;9.20;1.00
41939;DHT22;23057;48.554;14.454;2022-09-21T09:29:25;9.40;1.00
41939;DHT22;23057;48.554;14.454;2022-09-21T09:32:45;9.30;99.90
41939;DHT22;23057;48.554;14.454;2022-09-21T09:35:47;9.40;99.90
41939;DHT22;23057;48.554;14.454;2022-09-21T09:51:11;10.10;1.00
41939;DHT22;23057;48.554;14.454;2022-09-21T09:53:42;10.30;1.00
41939;DHT22;23057;48.554;14.454;2022-09-21T09:56:13;10.20;99.90
41939;DHT22;23057;48.554;14.454;2022-09-21T09:58:55;10.20;1.00
41939;DHT22;23057;48.554;14.454;2022-09-21T10:04:13;9.60;99.90
41939;DHT22;23057;48.554;14.454;2022-09-21T10:06:47;9.50;99.90
41939;DHT22;23057;48.554;14.454;2022-09-21T10:12:14;9.50;17.60
41939;DHT22;23057;48.554;14.454;2022-09-21T10:14:55;9.50;99.90
41939;DHT22;23057;48.554;14.454;2022-09-21T10:17:30;9.40;1.00
41939;DHT22;23057;48.554;14.454;2022-09-21T10:20:01;9.50;69.70
41939;DHT22;23057;48.554;14.454;2022-09-21T10:22:37;9.90;99.90
41939;DHT22;23057;48.554;14.454;2022-09-21T10:25:14;10.20;99.90
41939;DHT22;23057;48.554;14.454;2022-09-21T10:27:48;10.00;99.90
41939;DHT22;23057;48.554;14.454;2022-09-21T10:30:34;10.10;1.00
41939;DHT22;23057;48.554;14.454;2022-09-21T10:33:20;10.00;99.90
41939;DHT22;23057;48.554;14.454;2022-09-21T10:35:51;10.10;17.50
41939;DHT22;23057;48.554;14.454;2022-09-21T10:38:25;10.00;99.90
41939;DHT22;23057;48.554;14.454;2022-09-21T10:41:00;10.00;99.90
41939;DHT22;23057;48.554;14.454;2022-09-21T10:43:32;9.80;99.90
41939;DHT22;23057;48.554;14.454;2022-09-21T10:46:11;9.80;99.90
41939;DHT22;23057;48.554;14.454;2022-09-21T10:48:44;9.90;99.90
41939;DHT22;23057;48.554;14.454;2022-09-21T10:51:25;10.10;99.90
41939;DHT22;23057;48.554;14.454;2022-09-21T10:54:00;10.20;1.00
41939;DHT22;23057;48.554;14.454;2022-09-21T10:56:48;10.30;99.90
41939;DHT22;23057;48.554;14.454;2022-09-21T10:59:32;10.30;99.90
41939;DHT22;23057;48.554;14.454;2022-09-21T11:02:26;10.30;99.90
41939;DHT22;23057;48.554;14.454;2022-09-21T11:05:06;10.40;99.90
41939;DHT22;23057;48.554;14.454;2022-09-21T11:10:49;10.30;99.90
41939;DHT22;23057;48.554;14.454;2022-09-21T11:13:40;10.40;99.90
41939;DHT22;23057;48.554;14.454;2022-09-21T11:16:32;10.00;1.00
41939;DHT22;23057;48.554;14.454;2022-09-21T11:22:27;10.00;1.00
41939;DHT22;23057;48.554;14.454;2022-09-21T11:25:41;10.00;3.10
41939;DHT22;23057;48.554;14.454;2022-09-21T11:28:25;10.10;92.70
41939;DHT22;23057;48.554;14.454;2022-09-21T11:31:15;10.20;99.90
41939;DHT22;23057;48.554;14.454;2022-09-21T11:34:28;10.30;99.90
41939;DHT22;23057;48.554;14.454;2022-09-21T11:44:28;10.30;24.40
41939;DHT22;23057;48.554;14.454;2022-09-21T11:46:53;10.50;99.90
41939;DHT22;23057;48.554;14.454;2022-09-21T11:53:23;10.60;99.90
41939;DHT22;23057;48.554;14.454;2022-09-21T11:56:29;10.60;99.90
41939;DHT22;23057;48.554;14.454;2022-09-21T11:59:42;10.40;99.90
41939;DHT22;23057;48.554;14.454;2022-09-21T12:14:12;10.80;1.00
41939;DHT22;23057;48.554;14.454;2022-09-21T12:20:09;10.70;1.00
41939;DHT22;23057;48.554;14.454;2022-09-21T12:23:02;10.90;67.20
41939;DHT22;23057;48.554;14.454;2022-09-21T12:25:45;11.10;1.00
41939;DHT22;23057;48.554;14.454;2022-09-21T12:28:29;10.90;99.90
41939;DHT22;23057;48.554;14.454;2022-09-21T12:31:18;10.80;1.00
41939;DHT22;23057;48.554;14.454;2022-09-21T12:34:00;10.90;2.40
41939;DHT22;23057;48.554;14.454;2022-09-21T12:36:41;11.10;1.00
41939;DHT22;23057;48.554;14.454;2022-09-21T12:39:31;11.20;99.90
41939;DHT22;23057;48.554;14.454;2022-09-21T12:45:26;11.50;99.90
41939;DHT22;23057;48.554;14.454;2022-09-21T12:53:56;11.80;99.90
41939;DHT22;23057;48.554;14.454;2022-09-21T12:56:51;11.70;99.90
41939;DHT22;23057;48.554;14.454;2022-09-21T13:09:08;11.40;99.90
41939;DHT22;23057;48.554;14.454;2022-09-21T13:11:59;11.00;99.90
41939;DHT22;23057;48.554;14.454;2022-09-21T13:15:00;10.80;99.90
41939;DHT22;23057;48.554;14.454;2022-09-21T13:17:42;10.60;99.90
41939;DHT22;23057;48.554;14.454;2022-09-21T13:20:17;10.60;99.90
41939;DHT22;23057;48.554;14.454;2022-09-21T13:22:56;10.50;99.90
41939;DHT22;23057;48.554;14.454;2022-09-21T13:25:31;10.50;99.90
41939;DHT22;23057;48.554;14.454;2022-09-21T13:54:44;11.90;1.00
41939;DHT22;23057;48.554;14.454;2022-09-21T13:57:36;11.90;1.00
41939;DHT22;23057;48.554;14.454;2022-09-21T14:02:43;11.90;99.90
41939;DHT22;23057;48.554;14.454;2022-09-21T14:05:30;11.90;17.00
41939;DHT22;23057;48.554;14.454;2022-09-21T14:13:32;12.10;84.80
41939;DHT22;23057;48.554;14.454;2022-09-21T14:19:04;12.30;52.00
41939;DHT22;23057;48.554;14.454;2022-09-21T14:27:15;12.10;1.00
41939;DHT22;23057;48.554;14.454;2022-09-21T14:30:22;12.10;1.00
41939;DHT22;23057;48.554;14.454;2022-09-21T14:35:35;12.50;1.00
41939;DHT22;23057;48.554;14.454;2022-09-21T14:41:02;12.90;12.20
41939;DHT22;23057;48.554;14.454;2022-09-21T14:43:37;12.90;1.00
41939;DHT22;23057;48.554;14.454;2022-09-21T14:55:51;13.40;1.00
41939;DHT22;23057;48.554;14.454;2022-09-21T15:00:34;12.50;1.00
41939;DHT22;23057;48.554;14.454;2022-09-21T15:02:58;11.90;1.00
41939;DHT22;23057;48.554;14.454;2022-09-21T15:05:37;12.10;1.00
41939;DHT22;23057;48.554;14.454;2022-09-21T15:08:22;11.90;1.00
41939;DHT22;23057;48.554;14.454;2022-09-21T15:12:02;11.60;1.00
41939;DHT22;23057;48.554;14.454;2022-09-21T15:17:50;11.20;79.80
41939;DHT22;23057;48.554;14.454;2022-09-21T15:20:31;11.10;99.90
41939;DHT22;23057;48.554;14.454;2022-09-21T15:23:10;10.70;99.90
41939;DHT22;23057;48.554;14.454;2022-09-21T15:25:52;10.40;99.90
41939;DHT22;23057;48.554;14.454;2022-09-21T15:28:40;10.10;99.90
41939;DHT22;23057;48.554;14.454;2022-09-21T15:31:18;10.00;1.00
41939;DHT22;23057;48.554;14.454;2022-09-21T15:33:50;9.90;38.80
41939;DHT22;23057;48.554;14.454;2022-09-21T15:36:23;9.80;94.80
41939;DHT22;23057;48.554;14.454;2022-09-21T15:38:57;9.60;49.20
41939;DHT22;23057;48.554;14.454;2022-09-21T15:41:38;9.50;99.90
41939;DHT22;23057;48.554;14.454;2022-09-21T15:44:18;9.50;99.90
41939;DHT22;23057;48.554;14.454;2022-09-21T15:46:54;9.40;1.00
41939;DHT22;23057;48.554;14.454;2022-09-21T15:49:29;9.40;41.40
41939;DHT22;23057;48.554;14.454;2022-09-21T15:54:57;9.60;99.90
41939;DHT22;23057;48.554;14.454;2022-09-21T15:57:33;9.60;99.90
41939;DHT22;23057;48.554;14.454;2022-09-21T16:00:17;9.50;23.00
41939;DHT22;23057;48.554;14.454;2022-09-21T16:03:04;9.40;94.90
41939;DHT22;23057;48.554;14.454;2022-09-21T16:05:49;9.50;99.90
41939;DHT22;23057;48.554;14.454;2022-09-21T16:11:17;9.50;92.70
41939;DHT22;23057;48.554;14.454;2022-09-21T16:13:58;9.40;99.90
41939;DHT22;23057;48.554;14.454;2022-09-21T16:22:30;9.30;99.90
41939;DHT22;23057;48.554;14.454;2022-09-21T16:25:36;9.40;99.90
41939;DHT22;23057;48.554;14.454;2022-09-21T16:30:47;9.40;99.90
41939;DHT22;23057;48.554;14.454;2022-09-21T16:33:35;9.40;99.90
41939;DHT22;23057;48.554;14.454;2022-09-21T16:38:47;9.30;99.90
41939;DHT22;23057;48.554;14.454;2022-09-21T16:41:23;9.30;99.90
41939;DHT22;23057;48.554;14.454;2022-09-21T16:44:13;9.20;99.90
41939;DHT22;23057;48.554;14.454;2022-09-21T16:46:54;9.20;99.90
41939;DHT22;23057;48.554;14.454;2022-09-21T16:49:30;9.10;99.90
41939;DHT22;23057;48.554;14.454;2022-09-21T16:52:04;9.10;1.00
41939;DHT22;23057;48.554;14.454;2022-09-21T16:54:36;9.00;1.00
41939;DHT22;23057;48.554;14.454;2022-09-21T16:57:09;8.90;1.00
41939;DHT22;23057;48.554;14.454;2022-09-21T16:59:41;8.90;31.10
41939;DHT22;23057;48.554;14.454;2022-09-21T17:02:13;8.90;99.90
41939;DHT22;23057;48.554;14.454;2022-09-21T17:04:43;8.50;99.90
41939;DHT22;23057;48.554;14.454;2022-09-21T17:07:15;8.20;99.90
41939;DHT22;23057;48.554;14.454;2022-09-21T17:09:46;8.10;99.90
41939;DHT22;23057;48.554;14.454;2022-09-21T17:12:17;8.30;99.90
41939;DHT22;23057;48.554;14.454;2022-09-21T17:14:48;8.30;99.90
41939;DHT22;23057;48.554;14.454;2022-09-21T17:17:21;8.30;99.90
41939;DHT22;23057;48.554;14.454;2022-09-21T17:19:54;8.30;99.90
41939;DHT22;23057;48.554;14.454;2022-09-21T17:22:24;8.30;99.90
41939;DHT22;23057;48.554;14.454;2022-09-21T17:24:55;8.20;99.90
41939;DHT22;23057;48.554;14.454;2022-09-21T17:27:26;8.20;99.90
41939;DHT22;23057;48.554;14.454;2022-09-21T17:29:58;8.10;99.90
41939;DHT22;23057;48.554;14.454;2022-09-21T17:32:32;8.00;99.90
41939;DHT22;23057;48.554;14.454;2022-09-21T17:37:46;7.80;99.90
41939;DHT22;23057;48.554;14.454;2022-09-21T17:40:17;7.90;99.90
41939;DHT22;23057;48.554;14.454;2022-09-21T17:42:48;7.90;99.90
41939;DHT22;23057;48.554;14.454;2022-09-21T17:45:41;7.90;99.90
41939;DHT22;23057;48.554;14.454;2022-09-21T17:48:22;7.90;99.90
41939;DHT22;23057;48.554;14.454;2022-09-21T17:50:53;7.90;99.90
41939;DHT22;23057;48.554;14.454;2022-09-21T17:53:24;7.80;99.90
41939;DHT22;23057;48.554;14.454;2022-09-21T18:01:32;7.30;99.90
41939;DHT22;23057;48.554;14.454;2022-09-21T18:04:06;7.20;99.90
41939;DHT22;23057;48.554;14.454;2022-09-21T18:06:40;7.10;99.90
41939;DHT22;23057;48.554;14.454;2022-09-21T18:09:11;7.20;99.90
41939;DHT22;23057;48.554;14.454;2022-09-21T18:14:51;7.40;99.90
41939;DHT22;23057;48.554;14.454;2022-09-21T18:17:38;7.40;99.90
41939;DHT22;23057;48.554;14.454;2022-09-21T18:23:05;7.30;99.90
41939;DHT22;23057;48.554;14.454;2022-09-21T18:25:46;7.30;99.90
41939;DHT22;23057;48.554;14.454;2022-09-21T18:31:28;7.30;99.90
41939;DHT22;23057;48.554;14.454;2022-09-21T18:37:05;7.40;99.90
41939;DHT22;23057;48.554;14.454;2022-09-21T18:39:42;7.50;99.90
41939;DHT22;23057;48.554;14.454;2022-09-21T18:42:42;7.40;99.90
41939;DHT22;23057;48.554;14.454;2022-09-21T18:45:17;7.40;99.90
41939;DHT22;23057;48.554;14.454;2022-09-21T18:51:22;7.50;99.90
41939;DHT22;23057;48.554;14.454;2022-09-21T18:54:18;7.50;99.90
41939;DHT22;23057;48.554;14.454;2022-09-21T18:56:52;7.40;99.90
41939;DHT22;23057;48.554;14.454;2022-09-21T18:59:24;7.40;99.90
41939;DHT22;23057;48.554;14.454;2022-09-21T19:01:55;7.30;99.90
41939;DHT22;23057;48.554;14.454;2022-09-21T19:04:28;7.30;99.90
41939;DHT22;23057;48.554;14.454;2022-09-21T19:07:02;7.30;99.90
41939;DHT22;23057;48.554;14.454;2022-09-21T19:09:43;7.30;99.90
41939;DHT22;23057;48.554;14.454;2022-09-21T19:21:04;7.40;99.90
41939;DHT22;23057;48.554;14.454;2022-09-21T19:30:31;6.90;99.90
41939;DHT22;23057;48.554;14.454;2022-09-21T19:33:08;6.90;99.90
41939;DHT22;23057;48.554;14.454;2022-09-21T19:35:55;7.10;99.90
41939;DHT22;23057;48.554;14.454;2022-09-21T19:38:27;7.20;99.90
41939;DHT22;23057;48.554;14.454;2022-09-21T19:41:09;7.20;99.90
41939;DHT22;23057;48.554;14.454;2022-09-21T19:44:29;7.20;99.90
41939;DHT22;23057;48.554;14.454;2022-09-21T19:50:20;7.40;99.90
41939;DHT22;23057;48.554;14.454;2022-09-21T19:53:24;7.40;99.90
41939;DHT22;23057;48.554;14.454;2022-09-21T19:56:14;7.40;99.90
41939;DHT22;23057;48.554;14.454;2022-09-21T19:59:05;7.50;99.90
41939;DHT22;23057;48.554;14.454;2022-09-21T20:01:57;7.50;99.90
41939;DHT22;23057;48.554;14.454;2022-09-21T20:07:20;7.50;99.90
41939;DHT22;23057;48.554;14.454;2022-09-21T20:10:05;7.40;99.90
41939;DHT22;23057;48.554;14.454;2022-09-21T20:15:57;7.50;99.90
41939;DHT22;23057;48.554;14.454;2022-09-21T20:22:08;7.40;99.90
41939;DHT22;23057;48.554;14.454;2022-09-21T20:24:48;7.30;99.90
41939;DHT22;23057;48.554;14.454;2022-09-21T20:27:38;7.30;99.90
41939;DHT22;23057;48.554;14.454;2022-09-21T20:30:16;7.30;99.90
41939;DHT22;23057;48.554;14.454;2022-09-21T20:32:52;7.20;99.90
41939;DHT22;23057;48.554;14.454;2022-09-21T20:35:29;7.20;99.90
41939;DHT22;23057;48.554;14.454;2022-09-21T20:38:00;7.10;99.90
41939;DHT22;23057;48.554;14.454;2022-09-21T20:40:32;7.10;99.90
41939;DHT22;23057;48.554;14.454;2022-09-21T20:43:03;7.00;99.90
41939;DHT22;23057;48.554;14.454;2022-09-21T20:45:34;6.90;99.90
41939;DHT22;23057;48.554;14.454;2022-09-21T20:48:05;6.80;99.90
41939;DHT22;23057;48.554;14.454;2022-09-21T20:50:42;6.60;99.90
41939;DHT22;23057;48.554;14.454;2022-09-21T20:53:18;6.60;99.90
41939;DHT22;23057;48.554;14.454;2022-09-21T20:55:53;6.50;99.90